Emprendedora — J7CO2 — position and weather

sailwx.info

Track history (hours):
 
Tides and Currents Weather Stations Pressure Air Temp Water Temp Dewpoint Dewpoint Depression Visibility Wind Speed Wind Dir Waves Ship Positions

Emprendedora

Last reported at 2017-Nov-19 06:28 UTC. Time now 2017-Nov-19 06:44 UTC.
Position N 17°09' W 061°53'.

Length 77 m; draft 3.1 m.

Type: . MMSI: 325631000.

Date/timePositionNaut miles runAvg speedWind from/ knotsBaromVisibWave heightAir tempDewpointWater temp
2017-Nov-19 06:28N 17°09' W 061°53'0 0.0
2017-Nov-19 05:57N 17°09' W 061°53'0 0.0
2017-Nov-19 05:28N 17°09' W 061°53'0 0.0
2017-Nov-19 04:58N 17°09' W 061°53'0 0.0
2017-Nov-19 04:27N 17°09' W 061°53'0 0.0
2017-Nov-19 04:01N 17°09' W 061°53'0 0.0
2017-Nov-19 03:28N 17°09' W 061°53'0 0.1
2017-Nov-19 02:58N 17°09' W 061°53'0 0.1
2017-Nov-19 02:30N 17°09' W 061°53'3 5.5
2017-Nov-19 02:00N 17°10' W 061°56'510.2
2017-Nov-19 01:30N 17°12' W 062°01'510.2
2017-Nov-19 01:00N 17°15' W 062°05'510.4
2017-Nov-19 00:30N 17°17' W 062°10'510.3
2017-Nov-19 00:00N 17°20' W 062°15'510.3
2017-Nov-18 23:30N 17°22' W 062°20'510.4
2017-Nov-18 23:00N 17°25' W 062°24'53 1.9
2017-Nov-17 19:01N 18°00' W 063°05'0 9.5
2017-Nov-17 18:58N 18°01' W 063°06'2 0.1
2017-Nov-16 22:34N 18°01' W 063°08'110.3
2017-Nov-16 22:30N 18°01' W 063°07'46 1.2
2017-Nov-15 07:09N 17°28' W 062°33'310.4
2017-Nov-15 06:53N 17°27' W 062°30'410.4
2017-Nov-15 06:30N 17°25' W 062°26'510.5
2017-Nov-15 06:00N 17°23' W 062°22'510.7
2017-Nov-15 05:30N 17°20' W 062°17'510.6
2017-Nov-15 05:00N 17°17' W 062°12'510.4
2017-Nov-15 04:30N 17°15' W 062°07'510.5
2017-Nov-15 04:00N 17°13' W 062°02'510.5
2017-Nov-15 03:30N 17°10' W 061°57'510.4
2017-Nov-15 03:00N 17°08' W 061°53'1 2.2
2017-Nov-15 02:30N 17°08' W 061°51'0 0.0
2017-Nov-15 02:00N 17°08' W 061°51'0 0.0
2017-Nov-15 01:30N 17°08' W 061°51'0 0.0
2017-Nov-15 01:00N 17°08' W 061°51'0 0.0
2017-Nov-15 00:30N 17°08' W 061°51'0 0.0
2017-Nov-15 00:00N 17°08' W 061°51'0 0.0
2017-Nov-14 23:30N 17°08' W 061°51'2 3.5
2017-Nov-14 23:00N 17°08' W 061°53'2 3.4
2017-Nov-14 22:30N 17°09' W 061°55'3 5.7
2017-Nov-14 22:00N 17°08' W 061°57'5 9.7
2017-Nov-14 21:30N 17°05' W 062°01'5 9.9
2017-Nov-14 20:59N 17°01' W 062°05'5 9.8
2017-Nov-14 20:30N 16°58' W 062°08'5 9.5
2017-Nov-14 20:00N 16°54' W 062°11'5 9.5
2017-Nov-14 19:30N 16°50' W 062°14'2 3.7
2017-Nov-14 19:00N 16°48' W 062°12'0 0.0
2017-Nov-14 18:29N 16°48' W 062°12'0 0.0
2017-Nov-14 18:00N 16°48' W 062°12'0 0.0
2017-Nov-14 17:30N 16°48' W 062°12'0 0.0
2017-Nov-14 16:59N 16°48' W 062°12'2 4.2
2017-Nov-14 16:30N 16°49' W 062°14'87 4.8
2017-Nov-13 22:35N 18°00' W 063°05'1 9.6
2017-Nov-13 22:29N 18°00' W 063°06'  
2017-Nov-09 23:20N 16°55' W 062°27'510.7
2017-Nov-09 22:50N 16°53' W 062°22'410.7
2017-Nov-09 22:30N 16°51' W 062°19'510.7
2017-Nov-09 22:00N 16°49' W 062°14'1 2.6
2017-Nov-09 21:30N 16°48' W 062°12'0 0.0
2017-Nov-09 21:00N 16°48' W 062°12'0 0.0
2017-Nov-09 20:30N 16°48' W 062°12'0 0.0
2017-Nov-09 20:00N 16°48' W 062°12'0 0.0
2017-Nov-09 19:30N 16°48' W 062°12'0 0.0
2017-Nov-09 19:00N 16°48' W 062°12'0 0.5
2017-Nov-09 18:30N 16°48' W 062°13'0 0.1
2017-Nov-09 18:00N 16°48' W 062°13'4 8.2
2017-Nov-09 17:30N 16°52' W 062°13'610.9
2017-Nov-09 16:59N 16°57' W 062°09'510.5
2017-Nov-09 16:30N 17°00' W 062°05'510.4
2017-Nov-09 16:00N 17°04' W 062°02'510.7
2017-Nov-09 15:30N 17°08' W 061°58'4 8.9
2017-Nov-09 15:00N 17°08' W 061°53'2 3.2
2017-Nov-09 14:28N 17°08' W 061°51'0 0.0
2017-Nov-09 13:58N 17°08' W 061°51'0 0.0
2017-Nov-09 13:28N 17°08' W 061°51'0 0.0
2017-Nov-09 12:58N 17°08' W 061°51'0 0.0
2017-Nov-09 12:28N 17°08' W 061°51'0 0.0
2017-Nov-09 11:58N 17°08' W 061°51'0 0.0
2017-Nov-09 11:28N 17°08' W 061°51'0 0.1
2017-Nov-09 11:00N 17°07' W 061°51'2 3.8
2017-Nov-09 10:29N 17°08' W 061°53'0 0.1
2017-Nov-09 09:59N 17°09' W 061°53'0 0.0
2017-Nov-09 09:29N 17°09' W 061°53'0 0.0
2017-Nov-09 08:59N 17°08' W 061°53'0 0.0
2017-Nov-09 08:26N 17°08' W 061°53'0 0.0
2017-Nov-09 07:59N 17°09' W 061°53'2 4.9
2017-Nov-09 07:30N 17°09' W 061°55'5 9.8
2017-Nov-09 07:00N 17°12' W 062°00'5 9.5
2017-Nov-09 06:30N 17°14' W 062°04'  
Track history (hours):
 
Tides and Currents Weather Stations Pressure Air Temp Water Temp Dewpoint Dewpoint Depression Visibility Wind Speed Wind Dir Waves Ship Positions

Emprendedora

Last reported at 2017-Nov-19 06:28 UTC. Time now 2017-Nov-19 06:44 UTC.
Position N 17°09' W 061°53'.

Length 77 m; draft 3.1 m.

Type: . MMSI: 325631000.

Date/timePositionNaut miles runAvg speedWind from/ knotsBaromVisibWave heightAir tempDewpointWater temp
2017-Nov-19 06:28N 17°09' W 061°53'0 0.0
2017-Nov-19 05:57N 17°09' W 061°53'0 0.0
2017-Nov-19 05:28N 17°09' W 061°53'0 0.0
2017-Nov-19 04:58N 17°09' W 061°53'0 0.0
2017-Nov-19 04:27N 17°09' W 061°53'0 0.0
2017-Nov-19 04:01N 17°09' W 061°53'0 0.0
2017-Nov-19 03:28N 17°09' W 061°53'0 0.1
2017-Nov-19 02:58N 17°09' W 061°53'0 0.1
2017-Nov-19 02:30N 17°09' W 061°53'3 5.5
2017-Nov-19 02:00N 17°10' W 061°56'510.2
2017-Nov-19 01:30N 17°12' W 062°01'510.2
2017-Nov-19 01:00N 17°15' W 062°05'510.4
2017-Nov-19 00:30N 17°17' W 062°10'510.3
2017-Nov-19 00:00N 17°20' W 062°15'510.3
2017-Nov-18 23:30N 17°22' W 062°20'510.4
2017-Nov-18 23:00N 17°25' W 062°24'53 1.9
2017-Nov-17 19:01N 18°00' W 063°05'0 9.5
2017-Nov-17 18:58N 18°01' W 063°06'2 0.1
2017-Nov-16 22:34N 18°01' W 063°08'110.3
2017-Nov-16 22:30N 18°01' W 063°07'46 1.2
2017-Nov-15 07:09N 17°28' W 062°33'310.4
2017-Nov-15 06:53N 17°27' W 062°30'410.4
2017-Nov-15 06:30N 17°25' W 062°26'510.5
2017-Nov-15 06:00N 17°23' W 062°22'510.7
2017-Nov-15 05:30N 17°20' W 062°17'510.6
2017-Nov-15 05:00N 17°17' W 062°12'510.4
2017-Nov-15 04:30N 17°15' W 062°07'510.5
2017-Nov-15 04:00N 17°13' W 062°02'510.5
2017-Nov-15 03:30N 17°10' W 061°57'510.4
2017-Nov-15 03:00N 17°08' W 061°53'1 2.2
2017-Nov-15 02:30N 17°08' W 061°51'0 0.0
2017-Nov-15 02:00N 17°08' W 061°51'0 0.0
2017-Nov-15 01:30N 17°08' W 061°51'0 0.0
2017-Nov-15 01:00N 17°08' W 061°51'0 0.0
2017-Nov-15 00:30N 17°08' W 061°51'0 0.0
2017-Nov-15 00:00N 17°08' W 061°51'0 0.0
2017-Nov-14 23:30N 17°08' W 061°51'2 3.5
2017-Nov-14 23:00N 17°08' W 061°53'2 3.4
2017-Nov-14 22:30N 17°09' W 061°55'3 5.7
2017-Nov-14 22:00N 17°08' W 061°57'5 9.7
2017-Nov-14 21:30N 17°05' W 062°01'5 9.9
2017-Nov-14 20:59N 17°01' W 062°05'5 9.8
2017-Nov-14 20:30N 16°58' W 062°08'5 9.5
2017-Nov-14 20:00N 16°54' W 062°11'5 9.5
2017-Nov-14 19:30N 16°50' W 062°14'2 3.7
2017-Nov-14 19:00N 16°48' W 062°12'0 0.0
2017-Nov-14 18:29N 16°48' W 062°12'0 0.0
2017-Nov-14 18:00N 16°48' W 062°12'0 0.0
2017-Nov-14 17:30N 16°48' W 062°12'0 0.0
2017-Nov-14 16:59N 16°48' W 062°12'2 4.2
2017-Nov-14 16:30N 16°49' W 062°14'87 4.8
2017-Nov-13 22:35N 18°00' W 063°05'1 9.6
2017-Nov-13 22:29N 18°00' W 063°06'  
2017-Nov-09 23:20N 16°55' W 062°27'510.7
2017-Nov-09 22:50N 16°53' W 062°22'410.7
2017-Nov-09 22:30N 16°51' W 062°19'510.7
2017-Nov-09 22:00N 16°49' W 062°14'1 2.6
2017-Nov-09 21:30N 16°48' W 062°12'0 0.0
2017-Nov-09 21:00N 16°48' W 062°12'0 0.0
2017-Nov-09 20:30N 16°48' W 062°12'0 0.0
2017-Nov-09 20:00N 16°48' W 062°12'0 0.0
2017-Nov-09 19:30N 16°48' W 062°12'0 0.0
2017-Nov-09 19:00N 16°48' W 062°12'0 0.5
2017-Nov-09 18:30N 16°48' W 062°13'0 0.1
2017-Nov-09 18:00N 16°48' W 062°13'4 8.2
2017-Nov-09 17:30N 16°52' W 062°13'610.9
2017-Nov-09 16:59N 16°57' W 062°09'510.5
2017-Nov-09 16:30N 17°00' W 062°05'510.4
2017-Nov-09 16:00N 17°04' W 062°02'510.7
2017-Nov-09 15:30N 17°08' W 061°58'4 8.9
2017-Nov-09 15:00N 17°08' W 061°53'2 3.2
2017-Nov-09 14:28N 17°08' W 061°51'0 0.0
2017-Nov-09 13:58N 17°08' W 061°51'0 0.0
2017-Nov-09 13:28N 17°08' W 061°51'0 0.0
2017-Nov-09 12:58N 17°08' W 061°51'0 0.0
2017-Nov-09 12:28N 17°08' W 061°51'0 0.0
2017-Nov-09 11:58N 17°08' W 061°51'0 0.0
2017-Nov-09 11:28N 17°08' W 061°51'0 0.1
2017-Nov-09 11:00N 17°07' W 061°51'2 3.8
2017-Nov-09 10:29N 17°08' W 061°53'0 0.1
2017-Nov-09 09:59N 17°09' W 061°53'0 0.0
2017-Nov-09 09:29N 17°09' W 061°53'0 0.0
2017-Nov-09 08:59N 17°08' W 061°53'0 0.0
2017-Nov-09 08:26N 17°08' W 061°53'0 0.0
2017-Nov-09 07:59N 17°09' W 061°53'2 4.9
2017-Nov-09 07:30N 17°09' W 061°55'5 9.8
2017-Nov-09 07:00N 17°12' W 062°00'5 9.5
2017-Nov-09 06:30N 17°14' W 062°04'  

Dump ship's entire track history